createdAt,value
2024-01-26T00:00:49.491Z,101837.00
2024-01-26T00:03:20.204Z,101843.00
2024-01-26T00:05:53.456Z,101833.00
2024-01-26T00:08:23.960Z,101843.00
2024-01-26T00:10:54.482Z,101837.00
2024-01-26T00:13:24.832Z,101848.00
2024-01-26T00:15:55.244Z,101845.00
2024-01-26T00:18:25.704Z,101844.00
2024-01-26T00:20:58.666Z,101847.00
2024-01-26T00:23:29.851Z,101841.00
2024-01-26T00:26:00.228Z,101847.00
2024-01-26T00:28:30.615Z,101839.00
2024-01-26T00:31:01.014Z,101843.00
2024-01-26T00:33:31.531Z,101838.00
2024-01-26T00:36:05.023Z,101851.00
2024-01-26T00:38:35.568Z,101841.00
2024-01-26T00:41:06.021Z,101835.00
2024-01-26T00:43:36.408Z,101836.00
2024-01-26T00:46:07.705Z,101828.00
2024-01-26T00:48:40.979Z,101829.00
2024-01-26T00:51:15.417Z,101826.00
2024-01-26T00:53:46.022Z,101828.00
2024-01-26T00:56:16.435Z,101828.00
2024-01-26T00:58:46.761Z,101823.00
2024-01-26T01:01:17.571Z,101831.00
2024-01-26T01:03:47.946Z,101824.00
2024-01-26T01:06:20.985Z,101838.00
2024-01-26T01:08:51.392Z,101835.00
2024-01-26T01:11:21.860Z,101834.00
2024-01-26T01:13:52.231Z,101836.00
2024-01-26T01:16:23.842Z,101834.00
2024-01-26T01:18:54.270Z,101844.00
2024-01-26T01:21:27.637Z,101843.00
2024-01-26T01:23:58.017Z,101842.00
2024-01-26T01:26:29.111Z,101832.00
2024-01-26T01:28:59.540Z,101838.00
2024-01-26T01:31:30.336Z,101836.00
2024-01-26T01:34:00.789Z,101823.00
2024-01-26T01:36:33.790Z,101835.00
2024-01-26T01:39:04.251Z,101840.00
2024-01-26T01:41:34.670Z,101825.00
2024-01-26T01:44:05.233Z,101824.00
2024-01-26T01:46:35.736Z,101815.00
2024-01-26T01:49:06.490Z,101810.00
2024-01-26T01:51:40.308Z,101812.00
2024-01-26T01:54:11.588Z,101811.00
2024-01-26T01:56:43.600Z,101805.00
2024-01-26T01:59:13.962Z,101806.00
2024-01-26T02:01:44.440Z,101810.00
2024-01-26T02:04:14.867Z,101801.00
2024-01-26T02:06:57.534Z,101794.00
2024-01-26T02:09:27.947Z,101790.00
2024-01-26T02:12:01.155Z,101799.00
2024-01-26T02:14:31.761Z,101797.00
2024-01-26T02:17:03.740Z,101784.00
2024-01-26T02:19:36.271Z,101782.00
2024-01-26T02:22:09.534Z,101780.00
2024-01-26T02:24:42.579Z,101793.00
2024-01-26T02:27:13.553Z,101790.00
2024-01-26T02:29:44.130Z,101790.00
2024-01-26T02:32:14.554Z,101779.00
2024-01-26T02:34:45.105Z,101782.00
2024-01-26T02:37:15.489Z,101778.00
2024-01-26T02:39:48.453Z,101772.00
2024-01-26T02:42:18.793Z,101772.00
2024-01-26T02:44:49.217Z,101776.00
2024-01-26T02:47:19.743Z,101767.00
2024-01-26T02:49:50.222Z,101764.00
2024-01-26T02:52:22.079Z,101757.00
2024-01-26T02:54:55.462Z,101768.00
2024-01-26T02:57:25.799Z,101752.00
2024-01-26T02:59:56.189Z,101761.00
2024-01-26T03:02:26.538Z,101762.00
2024-01-26T03:04:56.901Z,101756.00
2024-01-26T03:07:27.314Z,101744.00
2024-01-26T03:10:00.294Z,101761.00
2024-01-26T03:12:30.650Z,101763.00
2024-01-26T03:15:01.058Z,101752.00
2024-01-26T03:17:31.704Z,101750.00
2024-01-26T03:20:02.292Z,101744.00
2024-01-26T03:22:34.487Z,101743.00
2024-01-26T03:25:07.667Z,101748.00
2024-01-26T03:27:38.005Z,101752.00
2024-01-26T03:30:09.735Z,101750.00
2024-01-26T03:32:40.296Z,101749.00
2024-01-26T03:35:11.754Z,101745.00
2024-01-26T03:37:42.511Z,101737.00
2024-01-26T03:40:15.867Z,101736.00
2024-01-26T03:42:46.872Z,101720.00
2024-01-26T03:45:17.641Z,101723.00
2024-01-26T03:47:48.143Z,101718.00
2024-01-26T03:50:18.741Z,101718.00
2024-01-26T03:52:49.120Z,101720.00
2024-01-26T03:55:22.527Z,101728.00
2024-01-26T03:57:52.865Z,101720.00
2024-01-26T04:00:23.643Z,101714.00
2024-01-26T04:02:54.108Z,101715.00
2024-01-26T04:05:24.550Z,101704.00
2024-01-26T04:07:54.863Z,101708.00
2024-01-26T04:10:27.898Z,101702.00
2024-01-26T04:12:58.262Z,101703.00
2024-01-26T04:15:28.575Z,101694.00
2024-01-26T04:17:59.960Z,101689.00
2024-01-26T04:20:27.769Z,101693.00
2024-01-26T04:22:58.120Z,101694.00
2024-01-26T04:25:31.043Z,101681.00
2024-01-26T04:28:01.361Z,101679.00
2024-01-26T04:30:31.902Z,101678.00
2024-01-26T04:33:02.285Z,101673.00
2024-01-26T04:35:32.906Z,101676.00
2024-01-26T04:38:03.551Z,101670.00
2024-01-26T04:40:36.491Z,101660.00
2024-01-26T04:43:07.154Z,101658.00
2024-01-26T04:45:37.531Z,101664.00
2024-01-26T04:48:08.980Z,101668.00
2024-01-26T04:50:39.387Z,101654.00
2024-01-26T04:53:09.862Z,101661.00
2024-01-26T04:55:43.295Z,101660.00
2024-01-26T04:58:13.695Z,101664.00
2024-01-26T05:00:44.038Z,101674.00
2024-01-26T05:03:14.541Z,101666.00
2024-01-26T05:05:45.518Z,101659.00
2024-01-26T05:08:15.914Z,101654.00
2024-01-26T05:10:48.911Z,101655.00
2024-01-26T05:13:19.240Z,101650.00
2024-01-26T05:15:49.580Z,101652.00
2024-01-26T05:18:20.020Z,101643.00
2024-01-26T05:20:50.460Z,101646.00
2024-01-26T05:23:21.035Z,101641.00
2024-01-26T05:25:53.957Z,101648.00
2024-01-26T05:28:24.274Z,101639.00
2024-01-26T05:30:55.233Z,101645.00
2024-01-26T05:33:25.668Z,101638.00
2024-01-26T05:35:56.741Z,101633.00
2024-01-26T05:38:27.110Z,101628.00
2024-01-26T05:41:00.940Z,101624.00
2024-01-26T05:43:31.255Z,101620.00
2024-01-26T05:46:01.587Z,101625.00
2024-01-26T05:48:31.960Z,101622.00
2024-01-26T05:51:02.381Z,101613.00
2024-01-26T05:53:32.739Z,101614.00
2024-01-26T05:56:05.685Z,101612.00
2024-01-26T05:58:36.071Z,101617.00
2024-01-26T06:01:06.645Z,101599.00
2024-01-26T06:03:37.056Z,101607.00
2024-01-26T06:06:09.238Z,101602.00
2024-01-26T06:08:41.480Z,101600.00
2024-01-26T06:11:16.030Z,101594.00
2024-01-26T06:13:46.352Z,101586.00
2024-01-26T06:16:17.544Z,101581.00
2024-01-26T06:18:48.265Z,101581.00
2024-01-26T06:21:18.777Z,101584.00
2024-01-26T06:23:49.157Z,101579.00
2024-01-26T06:26:22.554Z,101565.00
2024-01-26T06:28:52.947Z,101561.00
2024-01-26T06:31:27.763Z,101562.00
2024-01-26T06:33:58.504Z,101555.00
2024-01-26T06:36:28.936Z,101558.00
2024-01-26T06:38:59.276Z,101553.00
2024-01-26T06:41:32.286Z,101549.00
2024-01-26T06:44:03.929Z,101539.00
2024-01-26T06:46:34.270Z,101528.00
2024-01-26T06:49:05.503Z,101536.00
2024-01-26T06:51:35.899Z,101532.00
2024-01-26T06:54:06.269Z,101528.00
2024-01-26T06:56:39.237Z,101526.00
2024-01-26T06:59:09.566Z,101532.00
2024-01-26T07:01:39.914Z,101521.00
2024-01-26T07:04:10.290Z,101523.00
2024-01-26T07:06:40.763Z,101522.00
2024-01-26T07:09:11.147Z,101526.00
2024-01-26T07:11:44.110Z,101526.00
2024-01-26T07:14:17.032Z,101515.00
2024-01-26T07:16:47.585Z,101504.00
2024-01-26T07:19:18.148Z,101510.00
2024-01-26T07:21:48.574Z,101509.00
2024-01-26T07:24:19.029Z,101498.00
2024-01-26T07:26:52.194Z,101506.00
2024-01-26T07:29:22.572Z,101505.00
2024-01-26T07:31:52.910Z,101511.00
2024-01-26T07:34:23.365Z,101515.00
2024-01-26T07:36:53.813Z,101508.00
2024-01-26T07:39:24.151Z,101499.00
2024-01-26T07:41:57.147Z,101494.00
2024-01-26T07:44:27.485Z,101485.00
2024-01-26T07:46:57.840Z,101477.00
2024-01-26T07:49:31.132Z,101475.00
2024-01-26T07:52:03.597Z,101466.00
2024-01-26T07:54:34.251Z,101469.00
2024-01-26T07:57:07.784Z,101471.00
2024-01-26T07:59:38.254Z,101465.00
2024-01-26T08:02:08.839Z,101465.00
2024-01-26T08:04:39.450Z,101462.00
2024-01-26T08:07:10.182Z,101456.00
2024-01-26T08:09:40.780Z,101449.00
2024-01-26T08:12:24.671Z,101443.00
2024-01-26T08:15:04.067Z,101430.00
2024-01-26T08:17:34.785Z,101427.00
2024-01-26T08:20:07.069Z,101420.00
2024-01-26T08:22:39.967Z,101412.00
2024-01-26T08:25:11.991Z,101413.00
2024-01-26T08:27:45.749Z,101410.00
2024-01-26T08:30:17.312Z,101398.00
2024-01-26T08:32:47.813Z,101386.00
2024-01-26T08:35:19.119Z,101377.00
2024-01-26T08:37:50.344Z,101375.00
2024-01-26T08:40:21.645Z,101381.00
2024-01-26T08:42:54.598Z,101374.00
2024-01-26T08:45:25.050Z,101363.00
2024-01-26T08:47:55.540Z,101351.00
2024-01-26T08:50:26.227Z,101352.00
2024-01-26T08:52:56.571Z,101346.00
2024-01-26T08:55:27.264Z,101360.00
2024-01-26T08:58:00.178Z,101357.00
2024-01-26T09:00:31.025Z,101361.00
2024-01-26T09:03:01.440Z,101349.00
2024-01-26T09:05:31.973Z,101350.00
2024-01-26T09:08:02.740Z,101358.00
2024-01-26T09:10:33.110Z,101348.00
2024-01-26T09:13:06.217Z,101339.00
2024-01-26T09:15:36.545Z,101334.00
2024-01-26T09:18:08.134Z,101337.00
2024-01-26T09:20:38.903Z,101326.00
2024-01-26T09:23:09.393Z,101318.00
2024-01-26T09:25:39.752Z,101313.00
2024-01-26T09:28:12.734Z,101299.00
2024-01-26T09:30:43.064Z,101292.00
2024-01-26T09:33:13.550Z,101285.00
2024-01-26T09:35:44.060Z,101288.00
2024-01-26T09:38:14.470Z,101273.00
2024-01-26T09:40:45.001Z,101279.00
2024-01-26T09:43:18.429Z,101269.00
2024-01-26T09:45:48.808Z,101266.00
2024-01-26T09:48:19.425Z,101253.00
2024-01-26T09:50:52.943Z,101243.00
2024-01-26T09:53:23.720Z,101226.00
2024-01-26T09:55:54.362Z,101233.00
2024-01-26T09:58:27.274Z,101229.00
2024-01-26T10:00:59.332Z,101233.00
2024-01-26T10:03:34.474Z,101217.00
2024-01-26T10:06:05.960Z,101227.00
2024-01-26T10:08:41.837Z,101206.00
2024-01-26T10:11:12.463Z,101198.00
2024-01-26T10:13:46.361Z,101189.00
2024-01-26T10:16:19.250Z,101193.00
2024-01-26T10:18:50.905Z,101178.00
2024-01-26T10:21:23.426Z,101188.00
2024-01-26T10:23:55.688Z,101173.00
2024-01-26T10:26:26.235Z,101169.00
2024-01-26T10:29:00.566Z,101149.00
2024-01-26T10:31:31.484Z,101146.00
2024-01-26T10:34:02.598Z,101157.00
2024-01-26T10:36:33.648Z,101146.00
2024-01-26T10:39:04.764Z,101124.00
2024-01-26T10:41:38.817Z,101110.00
2024-01-26T10:44:13.046Z,101129.00
2024-01-26T10:46:43.670Z,101139.00
2024-01-26T10:49:15.613Z,101134.00
2024-01-26T10:51:46.383Z,101129.00
2024-01-26T10:54:17.796Z,101124.00
2024-01-26T10:56:48.425Z,101118.00
2024-01-26T10:59:21.679Z,101108.00
2024-01-26T11:01:52.027Z,101102.00
2024-01-26T11:04:22.651Z,101086.00
2024-01-26T11:06:53.209Z,101077.00
2024-01-26T11:09:23.763Z,101066.00
2024-01-26T11:11:55.616Z,101068.00
2024-01-26T11:14:36.699Z,101044.00
2024-01-26T11:17:13.887Z,101036.00
2024-01-26T11:19:52.930Z,101032.00
2024-01-26T11:22:23.809Z,101010.00
2024-01-26T11:25:00.195Z,100990.00
2024-01-26T11:27:30.838Z,100982.00
2024-01-26T11:30:04.210Z,100985.00
2024-01-26T11:32:36.810Z,100990.00
2024-01-26T11:35:10.651Z,100985.00
2024-01-26T11:37:41.148Z,100968.00
2024-01-26T11:40:13.580Z,100961.00
2024-01-26T11:42:44.573Z,100957.00
2024-01-26T11:45:44.296Z,100964.00
2024-01-26T11:48:15.759Z,100951.00
2024-01-26T11:50:48.662Z,100947.00
2024-01-26T11:53:20.922Z,100952.00
2024-01-26T11:55:53.061Z,100946.00
2024-01-26T11:58:23.818Z,100950.00
2024-01-26T12:00:57.020Z,100954.00
2024-01-26T12:03:27.973Z,100938.00
2024-01-26T12:05:58.762Z,100933.00
2024-01-26T12:08:31.460Z,100921.00
2024-01-26T12:11:02.776Z,100911.00
2024-01-26T12:13:33.219Z,100915.00
2024-01-26T12:16:06.963Z,100912.00
2024-01-26T12:18:37.386Z,100909.00
2024-01-26T12:21:09.777Z,100898.00
2024-01-26T12:23:40.135Z,100893.00
2024-01-26T12:26:15.329Z,100902.00
2024-01-26T12:28:45.656Z,100889.00
2024-01-26T12:31:18.975Z,100875.00
2024-01-26T12:33:49.823Z,100866.00
2024-01-26T12:36:20.429Z,100869.00
2024-01-26T12:38:50.841Z,100862.00
2024-01-26T12:41:21.957Z,100853.00
2024-01-26T12:43:54.276Z,100849.00
2024-01-26T12:46:27.478Z,100833.00
2024-01-26T12:48:58.763Z,100837.00
2024-01-26T12:51:29.179Z,100833.00
2024-01-26T12:53:59.610Z,100816.00
2024-01-26T12:56:35.104Z,100814.00
2024-01-26T12:59:05.573Z,100809.00
2024-01-26T13:01:38.568Z,100808.00
2024-01-26T13:04:09.254Z,100806.00
2024-01-26T13:06:39.792Z,100802.00
2024-01-26T13:09:12.055Z,100806.00
2024-01-26T13:11:42.847Z,100799.00
2024-01-26T13:14:13.219Z,100793.00
2024-01-26T13:16:46.147Z,100781.00
2024-01-26T13:19:16.770Z,100773.00
2024-01-26T13:21:49.876Z,100767.00
2024-01-26T13:24:20.402Z,100769.00
2024-01-26T13:26:51.179Z,100764.00
2024-01-26T13:29:21.571Z,100750.00
2024-01-26T13:31:54.649Z,100746.00
2024-01-26T13:34:25.092Z,100739.00
2024-01-26T13:36:56.228Z,100735.00
2024-01-26T13:39:26.616Z,100735.00
2024-01-26T13:41:57.264Z,100730.00
2024-01-26T13:44:28.319Z,100723.00
2024-01-26T13:47:01.240Z,100720.00
2024-01-26T13:49:31.697Z,100721.00
2024-01-26T13:52:02.193Z,100711.00
2024-01-26T13:54:32.512Z,100708.00
2024-01-26T13:57:02.979Z,100701.00
2024-01-26T13:59:35.936Z,100694.00
2024-01-26T14:02:09.264Z,100700.00
2024-01-26T14:04:40.500Z,100694.00
2024-01-26T14:07:11.691Z,100679.00
2024-01-26T14:09:42.745Z,100681.00
2024-01-26T14:12:13.152Z,100697.00
2024-01-26T14:14:43.528Z,100684.00
2024-01-26T14:17:17.648Z,100679.00
2024-01-26T14:19:48.095Z,100676.00
2024-01-26T14:22:18.479Z,100675.00
2024-01-26T14:24:48.843Z,100667.00
2024-01-26T14:27:22.842Z,100668.00
2024-01-26T14:29:54.980Z,100678.00
2024-01-26T14:32:33.009Z,100659.00
2024-01-26T14:35:04.100Z,100666.00
2024-01-26T14:37:37.493Z,100676.00
2024-01-26T14:40:12.988Z,100668.00
2024-01-26T14:42:43.399Z,100658.00
2024-01-26T14:45:15.063Z,100657.00
2024-01-26T14:47:49.193Z,100662.00
2024-01-26T14:50:19.754Z,100673.00
2024-01-26T14:52:50.118Z,100681.00
2024-01-26T14:55:22.445Z,100665.00
2024-01-26T14:57:53.665Z,100671.00
2024-01-26T15:00:25.628Z,100682.00
2024-01-26T15:03:00.170Z,100685.00
2024-01-26T15:05:30.613Z,100676.00
2024-01-26T15:08:00.956Z,100687.00
2024-01-26T15:10:31.318Z,100701.00
2024-01-26T15:13:01.692Z,100706.00
2024-01-26T15:15:32.072Z,100710.00
2024-01-26T15:18:05.225Z,100710.00
2024-01-26T15:20:35.799Z,100721.00
2024-01-26T15:23:06.450Z,100736.00
2024-01-26T15:25:36.860Z,100739.00
2024-01-26T15:28:07.775Z,100758.00
2024-01-26T15:30:38.210Z,100756.00
2024-01-26T15:33:11.668Z,100754.00
2024-01-26T15:35:42.116Z,100766.00
2024-01-26T15:38:12.551Z,100771.00
2024-01-26T15:40:44.049Z,100779.00
2024-01-26T15:43:16.618Z,100774.00
2024-01-26T15:45:47.012Z,100800.00
2024-01-26T15:48:20.138Z,100781.00
2024-01-26T15:50:52.347Z,100812.00
2024-01-26T15:53:22.731Z,100813.00
2024-01-26T15:55:53.052Z,100812.00
2024-01-26T15:58:23.785Z,100815.00
2024-01-26T16:00:54.314Z,100823.00
2024-01-26T16:03:29.589Z,100829.00
2024-01-26T16:06:02.084Z,100843.00
2024-01-26T16:08:32.540Z,100859.00
2024-01-26T16:11:02.874Z,100864.00
2024-01-26T16:13:33.221Z,100868.00
2024-01-26T16:16:03.716Z,100879.00
2024-01-26T16:18:37.549Z,100878.00
2024-01-26T16:21:08.272Z,100878.00
2024-01-26T16:23:38.892Z,100892.00
2024-01-26T16:26:09.317Z,100892.00
2024-01-26T16:28:39.684Z,100895.00
2024-01-26T16:31:10.073Z,100907.00
2024-01-26T16:33:43.143Z,100907.00
2024-01-26T16:36:13.577Z,100912.00
2024-01-26T16:38:50.650Z,100911.00
2024-01-26T16:41:27.888Z,100918.00
2024-01-26T16:43:58.214Z,100931.00
2024-01-26T16:46:28.555Z,100937.00
2024-01-26T16:49:01.657Z,100934.00
2024-01-26T16:51:32.059Z,100949.00
2024-01-26T16:54:02.396Z,100942.00
2024-01-26T16:56:32.897Z,100938.00
2024-01-26T16:59:03.257Z,100947.00
2024-01-26T17:01:34.867Z,100962.00
2024-01-26T17:04:08.355Z,100965.00
2024-01-26T17:06:38.949Z,100983.00
2024-01-26T17:09:09.496Z,100983.00
2024-01-26T17:11:39.956Z,100975.00
2024-01-26T17:14:10.369Z,100992.00
2024-01-26T17:16:41.156Z,100985.00
2024-01-26T17:19:14.292Z,100998.00
2024-01-26T17:21:46.762Z,100994.00
2024-01-26T17:24:17.212Z,101035.00
2024-01-26T17:26:47.667Z,101044.00
2024-01-26T17:29:18.013Z,101042.00
2024-01-26T17:31:48.898Z,101046.00
2024-01-26T17:34:21.925Z,101055.00
2024-01-26T17:36:52.366Z,101059.00
2024-01-26T17:39:23.702Z,101060.00
2024-01-26T17:41:56.227Z,101078.00
2024-01-26T17:44:28.057Z,101074.00
2024-01-26T17:46:58.424Z,101082.00
2024-01-26T17:49:31.475Z,101103.00
2024-01-26T17:52:01.912Z,101115.00
2024-01-26T17:54:32.261Z,101133.00
2024-01-26T17:57:02.646Z,101142.00
2024-01-26T17:59:33.565Z,101173.00
2024-01-26T18:02:03.938Z,101175.00
2024-01-26T18:04:36.881Z,101187.00
2024-01-26T18:07:07.619Z,101182.00
2024-01-26T18:09:37.956Z,101191.00
2024-01-26T18:12:09.427Z,101195.00
2024-01-26T18:14:39.957Z,101198.00
2024-01-26T18:17:10.783Z,101216.00
2024-01-26T18:19:43.820Z,101220.00
2024-01-26T18:22:14.249Z,101231.00
2024-01-26T18:24:44.606Z,101234.00
2024-01-26T18:27:15.280Z,101246.00
2024-01-26T18:29:45.662Z,101251.00
2024-01-26T18:32:16.702Z,101261.00
2024-01-26T18:34:50.169Z,101258.00
2024-01-26T18:37:20.650Z,101276.00
2024-01-26T18:39:51.046Z,101291.00
2024-01-26T18:42:21.429Z,101290.00
2024-01-26T18:44:51.897Z,101285.00
2024-01-26T18:47:22.237Z,101303.00
2024-01-26T18:49:55.351Z,101320.00
2024-01-26T18:52:25.792Z,101309.00
2024-01-26T18:54:56.145Z,101320.00
2024-01-26T18:57:26.557Z,101329.00
2024-01-26T18:59:57.491Z,101334.00
2024-01-26T19:02:27.980Z,101343.00
2024-01-26T19:05:01.241Z,101355.00
2024-01-26T19:07:32.538Z,101356.00
2024-01-26T19:10:03.301Z,101359.00
2024-01-26T19:12:33.705Z,101351.00
2024-01-26T19:15:06.725Z,101366.00
2024-01-26T19:17:37.513Z,101370.00
2024-01-26T19:20:12.611Z,101367.00
2024-01-26T19:22:43.285Z,101388.00
2024-01-26T19:25:14.892Z,101381.00
2024-01-26T19:27:45.410Z,101389.00
2024-01-26T19:30:16.526Z,101397.00
2024-01-26T19:32:47.329Z,101401.00
2024-01-26T19:35:20.978Z,101416.00
2024-01-26T19:37:51.526Z,101409.00
2024-01-26T19:40:22.298Z,101426.00
2024-01-26T19:42:53.451Z,101442.00
2024-01-26T19:45:25.785Z,101434.00
2024-01-26T19:47:56.374Z,101443.00
2024-01-26T19:50:36.647Z,101447.00
2024-01-26T19:53:07.583Z,101449.00
2024-01-26T19:55:38.233Z,101453.00
2024-01-26T19:58:08.649Z,101457.00
2024-01-26T20:00:40.396Z,101442.00
2024-01-26T20:03:13.103Z,101456.00
2024-01-26T20:05:46.197Z,101473.00
2024-01-26T20:08:17.268Z,101480.00
2024-01-26T20:10:49.011Z,101474.00
2024-01-26T20:13:21.390Z,101475.00
2024-01-26T20:15:51.980Z,101493.00
2024-01-26T20:18:22.524Z,101493.00
2024-01-26T20:20:55.560Z,101489.00
2024-01-26T20:23:30.319Z,101500.00
2024-01-26T20:26:02.563Z,101512.00
2024-01-26T20:28:33.290Z,101508.00
2024-01-26T20:31:04.201Z,101508.00
2024-01-26T20:33:34.726Z,101520.00
2024-01-26T20:36:08.821Z,101517.00
2024-01-26T20:38:39.399Z,101536.00
2024-01-26T20:41:10.703Z,101538.00
2024-01-26T20:43:41.112Z,101539.00
2024-01-26T20:46:12.030Z,101549.00
2024-01-26T20:48:42.524Z,101552.00
2024-01-26T20:51:15.734Z,101543.00
2024-01-26T20:53:46.220Z,101560.00
2024-01-26T20:56:16.596Z,101574.00
2024-01-26T20:58:46.942Z,101572.00
2024-01-26T21:01:17.604Z,101558.00
2024-01-26T21:03:48.106Z,101583.00
2024-01-26T21:06:21.124Z,101569.00
2024-01-26T21:08:52.503Z,101582.00
2024-01-26T21:11:22.890Z,101586.00
2024-01-26T21:13:53.244Z,101594.00
2024-01-26T21:16:24.991Z,101582.00
2024-01-26T21:18:57.058Z,101596.00
2024-01-26T21:21:30.411Z,101594.00
2024-01-26T21:24:01.817Z,101596.00
2024-01-26T21:26:32.187Z,101612.00
2024-01-26T21:29:02.590Z,101609.00
2024-01-26T21:31:37.240Z,101622.00
2024-01-26T21:34:07.881Z,101626.00
2024-01-26T21:36:40.946Z,101632.00
2024-01-26T21:39:12.359Z,101635.00
2024-01-26T21:41:42.818Z,101629.00
2024-01-26T21:44:13.332Z,101633.00
2024-01-26T21:46:44.309Z,101640.00
2024-01-26T21:49:16.941Z,101641.00
2024-01-26T21:51:55.492Z,101642.00
2024-01-26T21:54:28.730Z,101643.00
2024-01-26T21:56:59.148Z,101638.00
2024-01-26T21:59:29.505Z,101646.00
2024-01-26T22:01:59.861Z,101642.00
2024-01-26T22:04:30.776Z,101648.00
2024-01-26T22:07:03.768Z,101656.00
2024-01-26T22:09:34.196Z,101653.00
2024-01-26T22:12:04.619Z,101665.00
2024-01-26T22:14:35.071Z,101672.00
2024-01-26T22:17:05.727Z,101668.00
2024-01-26T22:19:36.126Z,101653.00
2024-01-26T22:22:09.154Z,101668.00
2024-01-26T22:24:39.481Z,101670.00
2024-01-26T22:27:10.347Z,101667.00
2024-01-26T22:29:40.727Z,101678.00
2024-01-26T22:32:11.349Z,101686.00
2024-01-26T22:34:41.712Z,101686.00
2024-01-26T22:37:15.549Z,101685.00
2024-01-26T22:39:45.864Z,101692.00
2024-01-26T22:42:16.266Z,101706.00
2024-01-26T22:44:48.618Z,101716.00
2024-01-26T22:47:19.038Z,101726.00
2024-01-26T22:49:50.901Z,101729.00
2024-01-26T22:52:23.963Z,101722.00
2024-01-26T22:54:54.288Z,101739.00
2024-01-26T22:57:24.822Z,101750.00
2024-01-26T22:59:55.267Z,101737.00
2024-01-26T23:02:26.498Z,101744.00
2024-01-26T23:04:58.984Z,101739.00
2024-01-26T23:07:31.930Z,101745.00
2024-01-26T23:10:02.280Z,101751.00
2024-01-26T23:12:32.682Z,101756.00
2024-01-26T23:15:03.171Z,101741.00
2024-01-26T23:17:33.556Z,101740.00
2024-01-26T23:20:04.542Z,101754.00
2024-01-26T23:22:37.985Z,101763.00
2024-01-26T23:25:09.784Z,101758.00
2024-01-26T23:27:41.327Z,101759.00
2024-01-26T23:30:11.964Z,101773.00
2024-01-26T23:32:45.229Z,101771.00
2024-01-26T23:35:15.969Z,101779.00
2024-01-26T23:37:48.987Z,101763.00
2024-01-26T23:40:19.460Z,101759.00
2024-01-26T23:42:51.308Z,101761.00
2024-01-26T23:45:21.823Z,101768.00
2024-01-26T23:47:52.591Z,101766.00
2024-01-26T23:50:23.584Z,101763.00
2024-01-26T23:52:56.495Z,101764.00
2024-01-26T23:55:26.880Z,101771.00
2024-01-26T23:57:57.240Z,101783.00
